createdAt,value
2022-12-01T00:01:09.688Z,5.00
2022-12-01T00:03:36.975Z,4.90
2022-12-01T00:06:10.641Z,4.90
2022-12-01T00:08:38.310Z,4.80
2022-12-01T00:11:05.196Z,4.80
2022-12-01T00:13:32.728Z,4.80
2022-12-01T00:16:13.195Z,4.80
2022-12-01T00:18:40.171Z,4.80
2022-12-01T00:21:13.274Z,4.70
2022-12-01T00:23:47.621Z,4.60
2022-12-01T00:26:18.586Z,4.50
2022-12-01T00:28:54.765Z,4.40
2022-12-01T00:31:21.920Z,4.30
2022-12-01T00:33:48.821Z,4.20
2022-12-01T00:36:15.721Z,4.10
2022-12-01T00:38:42.913Z,4.00
2022-12-01T00:41:09.787Z,3.90
2022-12-01T00:43:36.757Z,3.80
2022-12-01T00:46:04.118Z,3.70
2022-12-01T00:48:31.011Z,3.70
2022-12-01T00:50:57.810Z,3.60
2022-12-01T00:53:24.857Z,3.60
2022-12-01T00:55:54.024Z,3.50
2022-12-01T00:58:21.633Z,3.40
2022-12-01T01:00:48.836Z,3.30
2022-12-01T01:03:15.960Z,3.40
2022-12-01T01:05:43.821Z,3.40
2022-12-01T01:08:13.452Z,3.40
2022-12-01T01:10:41.812Z,3.40
2022-12-01T01:13:09.428Z,3.40
2022-12-01T01:15:36.285Z,3.40
2022-12-01T01:18:03.646Z,3.40
2022-12-01T01:20:30.532Z,3.40
2022-12-01T01:22:57.666Z,3.40
2022-12-01T01:25:24.598Z,3.40
2022-12-01T01:27:51.771Z,3.30
2022-12-01T01:30:18.788Z,3.20
2022-12-01T01:32:45.635Z,3.20
2022-12-01T01:35:12.495Z,3.10
2022-12-01T01:37:39.282Z,3.00
2022-12-01T01:40:06.863Z,2.90
2022-12-01T01:42:33.652Z,2.90
2022-12-01T01:45:00.495Z,2.90
2022-12-01T01:47:39.386Z,2.70
2022-12-01T01:50:13.371Z,2.60
2022-12-01T01:52:51.211Z,2.50
2022-12-01T01:55:18.586Z,2.50
2022-12-01T01:57:46.014Z,2.50
2022-12-01T02:00:20.240Z,2.50
2022-12-01T02:02:49.024Z,2.40
2022-12-01T02:05:26.064Z,2.40
2022-12-01T02:07:55.856Z,2.40
2022-12-01T02:10:32.853Z,2.40
2022-12-01T02:13:21.251Z,2.40
2022-12-01T02:16:06.853Z,2.50
2022-12-01T02:18:55.089Z,2.40
2022-12-01T02:21:43.698Z,2.40
2022-12-01T02:24:29.088Z,2.40
2022-12-01T02:27:14.401Z,2.30
2022-12-01T02:30:10.345Z,2.30
2022-12-01T02:33:03.674Z,2.20
2022-12-01T02:35:42.784Z,2.20
2022-12-01T02:38:29.947Z,2.20
2022-12-01T02:41:01.019Z,2.20
2022-12-01T02:43:46.433Z,2.20
2022-12-01T02:46:29.590Z,2.30
2022-12-01T02:49:00.414Z,2.40
2022-12-01T02:51:30.932Z,2.50
2022-12-01T02:54:00.210Z,2.50
2022-12-01T02:56:27.368Z,2.60
2022-12-01T02:58:54.326Z,2.50
2022-12-01T03:01:39.096Z,2.50
2022-12-01T03:04:42.886Z,2.50
2022-12-01T03:07:54.246Z,2.50
2022-12-01T03:10:48.210Z,2.50
2022-12-01T03:13:21.944Z,2.40
2022-12-01T03:15:54.848Z,2.40
2022-12-01T03:18:37.252Z,2.30
2022-12-01T03:21:09.918Z,2.20
2022-12-01T03:23:44.065Z,2.10
2022-12-01T03:26:16.432Z,2.00
2022-12-01T03:28:49.740Z,2.00
2022-12-01T03:31:21.167Z,2.00
2022-12-01T03:34:24.184Z,1.90
2022-12-01T03:36:59.057Z,1.90
2022-12-01T03:39:33.307Z,1.90
2022-12-01T03:42:06.385Z,1.80
2022-12-01T03:44:49.012Z,1.70
2022-12-01T03:47:21.563Z,1.70
2022-12-01T03:49:51.778Z,1.60
2022-12-01T03:52:36.773Z,1.60
2022-12-01T03:55:17.783Z,1.60
2022-12-01T03:57:47.452Z,1.70
2022-12-01T04:00:15.442Z,1.80
2022-12-01T04:02:43.107Z,1.80
2022-12-01T04:05:09.938Z,1.70
2022-12-01T04:07:40.795Z,1.70
2022-12-01T04:10:08.575Z,1.70
2022-12-01T04:12:35.491Z,1.70
2022-12-01T04:15:15.103Z,1.70
2022-12-01T04:17:44.303Z,1.70
2022-12-01T04:20:14.380Z,1.70
2022-12-01T04:22:41.814Z,1.70
2022-12-01T04:25:09.873Z,1.70
2022-12-01T04:27:37.522Z,1.70
2022-12-01T04:30:06.466Z,1.60
2022-12-01T04:32:38.436Z,1.50
2022-12-01T04:35:06.640Z,1.70
2022-12-01T04:37:33.752Z,1.40
2022-12-01T04:40:00.548Z,1.40
2022-12-01T04:42:27.361Z,1.30
2022-12-01T04:44:54.217Z,1.30
2022-12-01T04:47:21.023Z,1.30
2022-12-01T04:49:48.263Z,1.30
2022-12-01T04:52:15.318Z,1.40
2022-12-01T04:54:42.141Z,1.30
2022-12-01T04:57:09.001Z,1.30
2022-12-01T04:59:35.877Z,1.30
2022-12-01T05:02:04.248Z,1.20
2022-12-01T05:04:32.616Z,1.10
2022-12-01T05:06:59.495Z,1.00
2022-12-01T05:09:26.448Z,1.00
2022-12-01T05:11:53.260Z,1.00
2022-12-01T05:14:20.083Z,1.00
2022-12-01T05:16:46.947Z,1.00
2022-12-01T05:19:32.375Z,1.10
2022-12-01T05:21:59.207Z,1.10
2022-12-01T05:24:26.043Z,1.20
2022-12-01T05:26:52.831Z,1.20
2022-12-01T05:29:19.726Z,1.20
2022-12-01T05:31:47.344Z,1.20
2022-12-01T05:34:14.231Z,1.20
2022-12-01T05:36:42.043Z,1.10
2022-12-01T05:39:08.912Z,1.10
2022-12-01T05:41:35.746Z,1.10
2022-12-01T05:44:02.714Z,1.10
2022-12-01T05:46:29.565Z,1.10
2022-12-01T05:48:56.416Z,1.10
2022-12-01T05:51:23.246Z,1.20
2022-12-01T05:53:50.074Z,1.10
2022-12-01T05:56:16.925Z,1.10
2022-12-01T05:58:43.820Z,1.10
2022-12-01T06:01:10.911Z,1.00
2022-12-01T06:03:37.775Z,1.00
2022-12-01T06:06:04.694Z,1.00
2022-12-01T06:08:31.546Z,1.00
2022-12-01T06:10:58.355Z,1.00
2022-12-01T06:13:25.241Z,1.00
2022-12-01T06:16:05.956Z,0.90
2022-12-01T06:18:36.221Z,0.90
2022-12-01T06:21:04.677Z,1.00
2022-12-01T06:23:32.286Z,1.00
2022-12-01T06:25:59.229Z,1.00
2022-12-01T06:28:26.158Z,1.20
2022-12-01T06:30:56.502Z,1.10
2022-12-01T06:33:26.279Z,1.20
2022-12-01T06:36:05.384Z,1.20
2022-12-01T06:38:34.295Z,1.20
2022-12-01T06:41:01.459Z,1.30
2022-12-01T06:43:28.632Z,1.20
2022-12-01T06:46:01.293Z,1.20
2022-12-01T06:48:29.129Z,1.20
2022-12-01T06:51:01.117Z,1.30
2022-12-01T06:53:28.986Z,1.40
2022-12-01T06:56:04.468Z,1.40
2022-12-01T06:58:32.116Z,1.50
2022-12-01T07:00:59.416Z,1.60
2022-12-01T07:03:27.155Z,1.70
2022-12-01T07:06:01.293Z,1.80
2022-12-01T07:08:29.594Z,1.90
2022-12-01T07:11:05.306Z,2.00
2022-12-01T07:13:34.000Z,2.20
2022-12-01T07:16:03.352Z,2.30
2022-12-01T07:18:30.865Z,2.40
2022-12-01T07:21:06.200Z,2.60
2022-12-01T07:23:33.342Z,2.70
2022-12-01T07:26:10.625Z,2.80
2022-12-01T07:28:37.456Z,2.90
2022-12-01T07:31:07.360Z,3.10
2022-12-01T07:33:35.006Z,3.20
2022-12-01T07:36:02.809Z,3.40
2022-12-01T07:38:30.675Z,3.60
2022-12-01T07:41:14.752Z,3.70
2022-12-01T07:43:42.418Z,3.90
2022-12-01T07:46:23.787Z,4.00
2022-12-01T07:48:52.030Z,4.20
2022-12-01T07:51:19.378Z,4.30
2022-12-01T07:53:47.468Z,4.40
2022-12-01T07:56:14.949Z,4.50
2022-12-01T07:58:42.608Z,4.60
2022-12-01T08:01:12.569Z,4.70
2022-12-01T08:03:40.634Z,4.90
2022-12-01T08:06:08.355Z,5.00
2022-12-01T08:08:37.247Z,5.20
2022-12-01T08:11:07.694Z,5.40
2022-12-01T08:13:34.895Z,5.70
2022-12-01T08:16:06.723Z,5.90
2022-12-01T08:18:37.993Z,6.10
2022-12-01T08:21:06.988Z,6.50
2022-12-01T08:23:34.462Z,6.70
2022-12-01T08:26:06.331Z,6.80
2022-12-01T08:28:36.231Z,7.00
2022-12-01T08:31:15.896Z,7.20
2022-12-01T08:33:42.852Z,7.40
2022-12-01T08:36:10.071Z,7.60
2022-12-01T08:38:37.000Z,7.60
2022-12-01T08:41:06.829Z,7.80
2022-12-01T08:43:56.502Z,7.90
2022-12-01T08:46:20.953Z,8.20
2022-12-01T08:48:47.897Z,8.40
2022-12-01T08:51:17.054Z,8.50
2022-12-01T08:53:46.696Z,8.70
2022-12-01T08:56:15.320Z,9.00
2022-12-01T08:58:42.393Z,9.20
2022-12-01T09:01:14.517Z,9.30
2022-12-01T09:03:42.225Z,9.60
2022-12-01T09:06:20.864Z,9.70
2022-12-01T09:08:48.201Z,9.80
2022-12-01T09:11:17.985Z,9.90
2022-12-01T09:13:52.937Z,10.10
2022-12-01T09:16:19.998Z,10.10
2022-12-01T09:18:47.779Z,10.20
2022-12-01T09:21:23.673Z,10.00
2022-12-01T09:23:50.640Z,9.90
2022-12-01T09:26:19.676Z,9.90
2022-12-01T09:28:57.364Z,9.80
2022-12-01T09:31:24.676Z,9.70
2022-12-01T09:33:56.670Z,9.40
2022-12-01T09:36:23.586Z,9.50
2022-12-01T09:38:50.436Z,9.60
2022-12-01T09:41:19.638Z,9.70
2022-12-01T09:43:54.162Z,9.90
2022-12-01T09:46:26.225Z,9.90
2022-12-01T09:48:57.319Z,9.70
2022-12-01T09:51:28.053Z,9.60
2022-12-01T09:53:59.497Z,9.60
2022-12-01T09:56:29.796Z,9.50
2022-12-01T09:59:07.313Z,9.50
2022-12-01T10:01:41.740Z,9.70
2022-12-01T10:04:17.662Z,9.80
2022-12-01T10:06:47.964Z,9.50
2022-12-01T10:09:24.525Z,9.10
2022-12-01T10:11:55.118Z,8.90
2022-12-01T10:14:22.207Z,8.80
2022-12-01T10:17:19.434Z,8.80
2022-12-01T10:20:15.327Z,8.80
2022-12-01T10:23:00.184Z,8.70
2022-12-01T10:25:31.702Z,8.70
2022-12-01T10:28:20.342Z,8.70
2022-12-01T10:30:52.730Z,8.60
2022-12-01T10:33:24.267Z,8.50
2022-12-01T10:35:51.823Z,8.30
2022-12-01T10:38:28.027Z,8.10
2022-12-01T10:40:59.612Z,8.00
2022-12-01T10:43:35.137Z,8.10
2022-12-01T10:46:14.748Z,8.20
2022-12-01T10:48:59.099Z,8.20
2022-12-01T10:51:27.359Z,8.10
2022-12-01T10:54:08.038Z,8.10
2022-12-01T10:56:39.417Z,8.10
2022-12-01T10:59:30.027Z,8.10
2022-12-01T11:01:58.595Z,8.10
2022-12-01T11:04:35.959Z,8.20
2022-12-01T11:07:03.920Z,8.30
2022-12-01T11:09:31.429Z,8.50
2022-12-01T11:12:03.940Z,8.60
2022-12-01T11:14:48.357Z,8.50
2022-12-01T11:17:38.632Z,8.50
2022-12-01T11:20:26.823Z,8.40
2022-12-01T11:23:15.388Z,8.40
2022-12-01T11:25:42.345Z,8.40
2022-12-01T11:28:20.503Z,8.50
2022-12-01T11:30:49.286Z,8.50
2022-12-01T11:33:18.036Z,8.50
2022-12-01T11:35:49.065Z,8.50
2022-12-01T11:38:30.067Z,8.60
2022-12-01T11:40:58.458Z,8.60
2022-12-01T11:43:35.153Z,8.70
2022-12-01T11:46:05.633Z,8.80
2022-12-01T11:48:37.406Z,8.60
2022-12-01T11:51:29.979Z,8.40
2022-12-01T11:54:26.756Z,8.20
2022-12-01T11:57:25.501Z,8.20
2022-12-01T11:59:41.551Z,8.20
2022-12-01T12:02:27.674Z,8.30
2022-12-01T12:05:03.641Z,8.40
2022-12-01T12:07:30.466Z,8.40
2022-12-01T12:10:22.165Z,8.30
2022-12-01T12:13:16.567Z,8.20
2022-12-01T12:16:15.254Z,8.10
2022-12-01T12:19:22.515Z,8.00
2022-12-01T12:22:10.656Z,8.00
2022-12-01T12:24:49.162Z,8.00
2022-12-01T12:27:40.974Z,7.90
2022-12-01T12:30:30.754Z,7.80
2022-12-01T12:33:15.491Z,7.80
2022-12-01T12:35:51.222Z,7.80
2022-12-01T12:38:42.833Z,7.80
2022-12-01T12:41:35.597Z,7.80
2022-12-01T12:44:36.634Z,7.70
2022-12-01T12:47:04.101Z,7.70
2022-12-01T12:49:39.670Z,7.70
2022-12-01T12:52:46.434Z,7.70
2022-12-01T12:55:23.137Z,7.70
2022-12-01T12:57:59.252Z,7.60
2022-12-01T13:00:28.461Z,7.60
2022-12-01T13:03:35.489Z,7.60
2022-12-01T13:06:06.870Z,7.60
2022-12-01T13:09:03.990Z,7.50
2022-12-01T13:11:45.547Z,7.50
2022-12-01T13:14:17.827Z,7.50
2022-12-01T13:16:48.077Z,7.60
2022-12-01T13:19:35.385Z,7.60
2022-12-01T13:22:04.397Z,7.60
2022-12-01T13:24:31.637Z,7.60
2022-12-01T13:27:03.558Z,7.60
2022-12-01T13:29:44.036Z,7.70
2022-12-01T13:32:26.244Z,7.60
2022-12-01T13:34:53.441Z,7.70
2022-12-01T13:37:28.855Z,7.60
2022-12-01T13:40:06.484Z,7.60
2022-12-01T13:42:34.366Z,7.50
2022-12-01T13:45:08.032Z,7.50
2022-12-01T13:47:47.001Z,7.50
2022-12-01T13:50:35.553Z,7.50
2022-12-01T13:53:23.759Z,7.40
2022-12-01T13:56:23.465Z,7.40
2022-12-01T13:58:53.604Z,7.40
2022-12-01T14:01:20.721Z,7.40
2022-12-01T14:03:56.977Z,7.30
2022-12-01T14:06:38.521Z,7.30
2022-12-01T14:09:25.715Z,7.30
2022-12-01T14:12:04.886Z,7.30
2022-12-01T14:14:39.140Z,7.30
2022-12-01T14:17:07.688Z,7.20
2022-12-01T14:19:54.123Z,7.20
2022-12-01T14:22:40.369Z,7.20
2022-12-01T14:25:23.078Z,7.20
2022-12-01T14:27:53.281Z,7.10
2022-12-01T14:30:48.162Z,7.10
2022-12-01T14:33:41.868Z,7.00
2022-12-01T14:36:23.824Z,7.00
2022-12-01T14:39:02.172Z,6.90
2022-12-01T14:41:33.587Z,6.90
2022-12-01T14:44:06.653Z,6.90
2022-12-01T14:46:45.909Z,6.80
2022-12-01T14:50:01.125Z,6.80
2022-12-01T14:52:37.419Z,6.80
2022-12-01T14:55:14.386Z,6.70
2022-12-01T14:57:46.208Z,6.60
2022-12-01T15:00:19.836Z,6.60
2022-12-01T15:03:19.096Z,6.50
2022-12-01T15:05:46.477Z,6.40
2022-12-01T15:08:45.838Z,6.30
2022-12-01T15:11:25.707Z,6.30
2022-12-01T15:13:55.127Z,6.20
2022-12-01T15:16:28.402Z,6.20
2022-12-01T15:18:55.348Z,6.20
2022-12-01T15:21:24.137Z,6.10
2022-12-01T15:24:24.212Z,6.00
2022-12-01T15:27:02.166Z,5.90
2022-12-01T15:29:33.006Z,5.90
2022-12-01T15:32:08.567Z,5.80
2022-12-01T15:34:44.590Z,5.70
2022-12-01T15:37:15.768Z,5.60
2022-12-01T15:39:49.157Z,5.60
2022-12-01T15:42:35.377Z,5.50
2022-12-01T15:45:23.738Z,5.40
2022-12-01T15:47:56.032Z,5.40
2022-12-01T15:50:46.156Z,5.40
2022-12-01T15:53:35.472Z,5.30
2022-12-01T15:56:09.709Z,5.30
2022-12-01T15:58:43.739Z,5.20
2022-12-01T16:01:16.675Z,5.10
2022-12-01T16:03:56.384Z,5.00
2022-12-01T16:06:31.433Z,5.00
2022-12-01T16:09:07.608Z,4.90
2022-12-01T16:11:34.494Z,4.90
2022-12-01T16:14:02.648Z,4.90
2022-12-01T16:16:44.957Z,4.90
2022-12-01T16:19:11.750Z,4.90
2022-12-01T16:22:14.284Z,4.90
2022-12-01T16:24:53.466Z,4.80
2022-12-01T16:27:26.566Z,4.80
2022-12-01T16:30:02.810Z,4.80
2022-12-01T16:32:44.258Z,4.70
2022-12-01T16:35:29.350Z,4.60
2022-12-01T16:37:58.512Z,4.60
2022-12-01T16:40:25.884Z,4.60
2022-12-01T16:42:52.884Z,4.60
2022-12-01T16:45:20.393Z,4.50
2022-12-01T16:47:48.712Z,4.50
2022-12-01T16:50:18.113Z,4.40
2022-12-01T16:52:45.998Z,4.40
2022-12-01T16:55:35.056Z,4.40
2022-12-01T16:58:02.294Z,4.30
2022-12-01T17:00:30.215Z,4.30
2022-12-01T17:02:57.805Z,4.50
2022-12-01T17:05:25.242Z,4.30
2022-12-01T17:07:52.338Z,4.30
2022-12-01T17:10:19.946Z,4.30
2022-12-01T17:12:46.885Z,4.30
2022-12-01T17:15:15.008Z,4.30
2022-12-01T17:17:41.896Z,4.20
2022-12-01T17:20:10.446Z,4.10
2022-12-01T17:22:37.687Z,4.10
2022-12-01T17:25:05.628Z,4.00
2022-12-01T17:27:32.860Z,4.00
2022-12-01T17:29:59.872Z,4.00
2022-12-01T17:32:28.776Z,3.90
2022-12-01T17:34:55.874Z,3.80
2022-12-01T17:37:23.114Z,3.80
2022-12-01T17:39:50.674Z,3.80
2022-12-01T17:42:17.783Z,3.70
2022-12-01T17:44:44.820Z,3.70
2022-12-01T17:47:12.062Z,3.70
2022-12-01T17:49:39.380Z,3.70
2022-12-01T17:52:08.293Z,3.60
2022-12-01T17:54:35.266Z,3.50
2022-12-01T17:57:02.445Z,3.50
2022-12-01T17:59:29.391Z,3.50
2022-12-01T18:01:56.360Z,3.50
2022-12-01T18:04:23.258Z,3.50
2022-12-01T18:06:53.988Z,3.50
2022-12-01T18:09:21.535Z,3.50
2022-12-01T18:11:48.849Z,3.40
2022-12-01T18:14:19.238Z,3.40
2022-12-01T18:16:46.683Z,3.50
2022-12-01T18:19:14.914Z,3.50
2022-12-01T18:21:42.402Z,3.40
2022-12-01T18:24:10.743Z,3.40
2022-12-01T18:26:40.452Z,3.40
2022-12-01T18:29:12.619Z,3.30
2022-12-01T18:31:40.530Z,3.30
2022-12-01T18:34:09.398Z,3.30
2022-12-01T18:36:39.291Z,3.40
2022-12-01T18:39:08.256Z,3.30
2022-12-01T18:41:35.822Z,3.40
2022-12-01T18:44:03.718Z,3.30
2022-12-01T18:46:31.482Z,3.30
2022-12-01T18:49:02.520Z,3.40
2022-12-01T18:51:31.767Z,3.20
2022-12-01T18:54:01.157Z,3.20
2022-12-01T18:56:29.686Z,3.20
2022-12-01T18:58:59.170Z,3.30
2022-12-01T19:01:37.780Z,3.20
2022-12-01T19:04:06.961Z,3.20
2022-12-01T19:06:35.849Z,3.10
2022-12-01T19:09:06.463Z,3.10
2022-12-01T19:11:34.169Z,3.00
2022-12-01T19:14:01.671Z,3.10
2022-12-01T19:16:29.111Z,3.00
2022-12-01T19:18:56.496Z,3.00
2022-12-01T19:21:23.886Z,3.00
2022-12-01T19:23:51.259Z,2.90
2022-12-01T19:26:20.707Z,2.90
2022-12-01T19:28:49.075Z,2.90
2022-12-01T19:31:28.188Z,2.90
2022-12-01T19:33:55.933Z,2.90
2022-12-01T19:36:25.930Z,2.90
2022-12-01T19:38:54.190Z,2.90
2022-12-01T19:41:21.605Z,2.90
2022-12-01T19:43:49.293Z,2.90
2022-12-01T19:46:20.314Z,2.90
2022-12-01T19:48:52.572Z,2.90
2022-12-01T19:51:26.166Z,2.90
2022-12-01T19:53:54.524Z,2.90
2022-12-01T19:56:23.046Z,2.90
2022-12-01T19:58:51.277Z,2.90
2022-12-01T20:01:23.003Z,2.80
2022-12-01T20:03:53.061Z,2.80
2022-12-01T20:06:26.662Z,2.80
2022-12-01T20:08:56.261Z,2.80
2022-12-01T20:11:24.224Z,2.80
2022-12-01T20:13:52.165Z,2.80
2022-12-01T20:16:24.681Z,2.80
2022-12-01T20:18:53.483Z,2.80
2022-12-01T20:21:33.856Z,2.70
2022-12-01T20:24:06.910Z,2.70
2022-12-01T20:26:39.829Z,2.60
2022-12-01T20:29:16.148Z,2.60
2022-12-01T20:31:44.445Z,2.50
2022-12-01T20:34:15.003Z,2.40
2022-12-01T20:36:41.969Z,2.40
2022-12-01T20:39:10.903Z,2.30
2022-12-01T20:41:40.434Z,2.30
2022-12-01T20:44:08.706Z,2.20
2022-12-01T20:46:37.455Z,2.20
2022-12-01T20:49:05.734Z,2.10
2022-12-01T20:51:33.576Z,2.10
2022-12-01T20:54:26.839Z,2.10
2022-12-01T20:56:49.631Z,2.00
2022-12-01T20:59:17.284Z,2.00
2022-12-01T21:01:45.969Z,1.90
2022-12-01T21:04:12.863Z,1.90
2022-12-01T21:06:39.811Z,1.90
2022-12-01T21:09:07.527Z,1.90
2022-12-01T21:12:03.086Z,1.90
2022-12-01T21:14:36.138Z,1.80
2022-12-01T21:17:21.178Z,1.80
2022-12-01T21:20:05.453Z,1.80
2022-12-01T21:22:32.699Z,1.80
2022-12-01T21:25:07.024Z,1.70
2022-12-01T21:27:34.097Z,1.70
2022-12-01T21:30:01.317Z,1.70
2022-12-01T21:32:33.332Z,1.70
2022-12-01T21:35:14.778Z,1.70
2022-12-01T21:37:41.863Z,1.80
2022-12-01T21:40:29.076Z,1.80
2022-12-01T21:43:01.496Z,1.80
2022-12-01T21:45:32.349Z,1.80
2022-12-01T21:48:15.975Z,1.80
2022-12-01T21:50:43.396Z,1.90
2022-12-01T21:53:16.300Z,1.90
2022-12-01T21:55:47.778Z,2.00
2022-12-01T21:58:22.831Z,2.00
2022-12-01T22:00:50.321Z,2.00
2022-12-01T22:03:40.039Z,1.90
2022-12-01T22:09:01.349Z,2.10
2022-12-01T22:11:30.453Z,2.30
2022-12-01T22:14:09.332Z,2.20
2022-12-01T22:16:58.074Z,2.20
2022-12-01T22:19:42.416Z,2.20
2022-12-01T22:22:09.222Z,2.20
2022-12-01T22:24:53.645Z,2.20
2022-12-01T22:27:43.359Z,2.30
2022-12-01T22:30:22.461Z,2.30
2022-12-01T22:32:55.655Z,2.30
2022-12-01T22:35:22.725Z,2.40
2022-12-01T22:38:00.011Z,2.40
2022-12-01T22:40:47.993Z,2.40
2022-12-01T22:43:17.763Z,2.50
2022-12-01T22:46:03.047Z,2.50
2022-12-01T22:48:42.276Z,2.60
2022-12-01T22:51:30.988Z,2.50
2022-12-01T22:54:40.676Z,2.60
2022-12-01T22:57:33.159Z,2.60
2022-12-01T23:00:21.770Z,2.70
2022-12-01T23:02:49.783Z,2.70
2022-12-01T23:05:28.933Z,2.70
2022-12-01T23:07:57.176Z,2.80
2022-12-01T23:10:28.511Z,2.70
2022-12-01T23:12:59.497Z,2.90
2022-12-01T23:15:30.619Z,2.80
2022-12-01T23:18:09.648Z,2.80
2022-12-01T23:20:36.849Z,2.80
2022-12-01T23:23:07.069Z,2.80
2022-12-01T23:25:34.799Z,2.80
2022-12-01T23:28:06.834Z,2.80
2022-12-01T23:30:34.883Z,2.80
2022-12-01T23:33:23.093Z,2.80
2022-12-01T23:36:03.973Z,2.90
2022-12-01T23:38:43.691Z,2.90
2022-12-01T23:41:25.485Z,2.90
2022-12-01T23:43:55.258Z,2.90
2022-12-01T23:46:25.251Z,3.00
2022-12-01T23:48:59.264Z,2.90
2022-12-01T23:51:30.895Z,2.90
2022-12-01T23:54:01.095Z,2.90
2022-12-01T23:56:30.571Z,2.80
2022-12-01T23:59:00.705Z,2.90
